Hlavní strana
METAR-TAF:

METAR-TAF

Letiště :

La Paz, Bolívie

zeměpisná šířka: 16-31S, zeměpisná délka: 068-11W, výška: 4058 m

Aktuální stav počasí

Zpráva byla vytvořena před 44 minutami, v 16:00 UTC
Západojihozápadní vítr 9 kt
Teplota 15°C
Vlhkost vzduchu 21%
Tlak 1038 hPa
Viditelnost 10 km a více
Skoro jasno ve výšce 2300 ft
Oblačno až skoro zataženo ve výšce 20000 ft

METAR: SLLP 181600Z 25009KT 9999 FEW023 BKN200 15/M07 Q1038

Čas: 12:44 (16:44 UTC)

Předpověď počasí

Zpráva byla vytvořena před 6 hodinami a 44 minutami, v 10:00 UTC
Předpověď platná od 19 v 12 UTC do 20 v 12 UTC
Východoseverovýchodní vítr 8 kt
Viditelnost 10 km a více
Změna
od 19 v 14 UTC do 19 v 17 UTC
Západojihozápadní vítr 12 kt
Skoro jasno ve výšce 2000 ft
Změna
od 19 v 22 UTC do 19 v 24 UTC
Severovýchodní vítr 5 kt
Skoro jasno ve výšce 1300 ft

TAF: SLLP 191000Z 1912/2012 07008KT 9999 NSC TX17/1920Z TNM04/2010Z BECMG 1914/1917 24012KT FEW020 BECMG 1922/1924 04005KT FEW013

Stav a předpovědi počasí z více než 4 000 letišť (zprávy METAR a TAF).

Červené a žluté tečky na mapě představují dostupné meteorologické stanice.

Když kurzor umístíte na tečku, zobrazí se název stanice.

Pak kliknutím zobrazíte stav a předpověď počasí.

Chcete-li změnit mapu, kliknutím na zelené tlačítko se znaménkem +mapu přiblížíte, kliknutím na zelené tlačítko se znaménkem – mapu oddálíte a kliknutím na zelené šipky přejdete na sousední mapy.


METAR-TAF: